RJA722 OJAI-OEMA
Flight info
| Callsign | RJA722 |
|---|---|
| Flight time | N/A |
| Altitude | 38000 |
| Route | MUNRA1A/08R MUNRA UM449 GIBET DCT BOVET |
| Aircraft | A20N/M-SDE2E3FGHIRWXY/LB1 |
Departure
| Time | N/A |
|---|---|
| Airport | Queen Alia International Airport (OJAI) |
Arrival
| Time | 2026-04-16 15:12 |
|---|---|
| Airport | Prince Mohammad Bin Abdulaziz Airport (OEMA) |
| Time | Latitude | Longitude | Altitude | Speed | Heading |
|---|---|---|---|---|---|
| 2026-04-16 14:08 | 28.95758 | 36.69609 | 37989 ft | 460 kts | 161° |
| 2026-04-16 14:08 | 28.90056 | 36.72897 | 37988 ft | 460 kts | 161° |
| 2026-04-16 14:09 | 28.84318 | 36.76203 | 37991 ft | 460 kts | 161° |
| 2026-04-16 14:09 | 28.78619 | 36.79481 | 37991 ft | 460 kts | 161° |
| 2026-04-16 14:10 | 28.72905 | 36.82764 | 37985 ft | 461 kts | 161° |
| 2026-04-16 14:10 | 28.67146 | 36.86069 | 37989 ft | 461 kts | 161° |
| 2026-04-16 14:11 | 28.61450 | 36.89333 | 37990 ft | 461 kts | 161° |
| 2026-04-16 14:11 | 28.55720 | 36.92614 | 37988 ft | 461 kts | 161° |
| 2026-04-16 14:12 | 28.49982 | 36.95894 | 37994 ft | 461 kts | 161° |
| 2026-04-16 14:12 | 28.44224 | 36.99183 | 37992 ft | 461 kts | 161° |
| 2026-04-16 14:13 | 28.39016 | 37.02153 | 37991 ft | 461 kts | 161° |
| 2026-04-16 14:13 | 28.37285 | 37.03139 | 37989 ft | 461 kts | 161° |
| 2026-04-16 14:14 | 28.31573 | 37.06393 | 37991 ft | 461 kts | 161° |
| 2026-04-16 14:14 | 28.25816 | 37.09668 | 37993 ft | 461 kts | 161° |
| 2026-04-16 14:15 | 28.20066 | 37.12934 | 37996 ft | 461 kts | 161° |
| 2026-04-16 14:15 | 28.14364 | 37.16170 | 37998 ft | 461 kts | 161° |
| 2026-04-16 14:16 | 28.08612 | 37.19430 | 38006 ft | 461 kts | 161° |
| 2026-04-16 14:16 | 28.02888 | 37.22670 | 38005 ft | 461 kts | 161° |
| 2026-04-16 14:17 | 27.97155 | 37.25911 | 38008 ft | 461 kts | 161° |
| 2026-04-16 14:17 | 27.91389 | 37.29167 | 38008 ft | 462 kts | 160° |
| 2026-04-16 14:18 | 27.85674 | 37.32390 | 38007 ft | 462 kts | 161° |
| 2026-04-16 14:18 | 27.79909 | 37.35639 | 38021 ft | 462 kts | 161° |
| 2026-04-16 14:19 | 27.74155 | 37.38876 | 38016 ft | 462 kts | 161° |
| 2026-04-16 14:19 | 27.68426 | 37.42096 | 38009 ft | 462 kts | 161° |
| 2026-04-16 14:20 | 27.62640 | 37.45344 | 38009 ft | 462 kts | 161° |
| 2026-04-16 14:20 | 27.56875 | 37.48577 | 37998 ft | 462 kts | 161° |
| 2026-04-16 14:21 | 27.51128 | 37.51795 | 38003 ft | 462 kts | 161° |
| 2026-04-16 14:21 | 27.45396 | 37.55002 | 38003 ft | 462 kts | 161° |
| 2026-04-16 14:22 | 27.39605 | 37.58238 | 37998 ft | 462 kts | 161° |
| 2026-04-16 14:22 | 27.33825 | 37.61463 | 37996 ft | 463 kts | 161° |
| 2026-04-16 14:23 | 27.28072 | 37.64670 | 37994 ft | 463 kts | 161° |
| 2026-04-16 14:23 | 27.22292 | 37.67889 | 37991 ft | 463 kts | 161° |
| 2026-04-16 14:24 | 27.16556 | 37.71079 | 37989 ft | 463 kts | 161° |
| 2026-04-16 14:24 | 27.10762 | 37.74297 | 37987 ft | 463 kts | 161° |
| 2026-04-16 14:25 | 27.05015 | 37.77486 | 37982 ft | 463 kts | 161° |
| 2026-04-16 14:25 | 26.99202 | 37.80708 | 37988 ft | 464 kts | 161° |
| 2026-04-16 14:26 | 26.93423 | 37.83906 | 37978 ft | 464 kts | 161° |
| 2026-04-16 14:26 | 26.87636 | 37.87106 | 37974 ft | 465 kts | 161° |
| 2026-04-16 14:27 | 26.81817 | 37.90320 | 37971 ft | 465 kts | 161° |
| 2026-04-16 14:27 | 26.76001 | 37.93528 | 37967 ft | 466 kts | 161° |
| 2026-04-16 14:28 | 26.70180 | 37.96736 | 37966 ft | 466 kts | 161° |
| 2026-04-16 14:28 | 26.64361 | 37.99938 | 37963 ft | 466 kts | 161° |
| 2026-04-16 14:29 | 26.58572 | 38.03120 | 37966 ft | 467 kts | 161° |
| 2026-04-16 14:29 | 26.52706 | 38.06342 | 37963 ft | 467 kts | 161° |
| 2026-04-16 14:30 | 26.46873 | 38.09542 | 37964 ft | 468 kts | 161° |
| 2026-04-16 14:30 | 26.41020 | 38.12748 | 37962 ft | 469 kts | 161° |
| 2026-04-16 14:31 | 26.35155 | 38.15957 | 37960 ft | 470 kts | 161° |
| 2026-04-16 14:31 | 26.29313 | 38.19151 | 37952 ft | 470 kts | 161° |
| 2026-04-16 14:32 | 26.23436 | 38.22360 | 37952 ft | 470 kts | 162° |
| 2026-04-16 14:32 | 26.17562 | 38.25566 | 37952 ft | 469 kts | 162° |
| 2026-04-16 14:33 | 26.11701 | 38.28759 | 37938 ft | 469 kts | 162° |
| 2026-04-16 14:33 | 26.05803 | 38.31967 | 37942 ft | 470 kts | 162° |
| 2026-04-16 14:34 | 25.99952 | 38.35147 | 37941 ft | 471 kts | 162° |
| 2026-04-16 14:34 | 25.94032 | 38.38359 | 37938 ft | 474 kts | 162° |
| 2026-04-16 14:35 | 25.88097 | 38.41576 | 37934 ft | 477 kts | 162° |
| 2026-04-16 14:35 | 25.82116 | 38.44818 | 37931 ft | 477 kts | 162° |
| 2026-04-16 14:36 | 25.77137 | 38.47514 | 37926 ft | 478 kts | 162° |
| 2026-04-16 14:36 | 25.71158 | 38.50749 | 37917 ft | 476 kts | 162° |
| 2026-04-16 14:37 | 25.65262 | 38.53936 | 37922 ft | 474 kts | 162° |
| 2026-04-16 14:37 | 25.59335 | 38.57131 | 37917 ft | 474 kts | 163° |
| 2026-04-16 14:38 | 25.53380 | 38.60337 | 37919 ft | 475 kts | 163° |
| 2026-04-16 14:38 | 25.47445 | 38.63531 | 37920 ft | 476 kts | 163° |
| 2026-04-16 14:39 | 25.41484 | 38.66735 | 37923 ft | 477 kts | 163° |
| 2026-04-16 14:39 | 25.35522 | 38.69937 | 37928 ft | 477 kts | 163° |
| 2026-04-16 14:40 | 25.29498 | 38.73169 | 37938 ft | 478 kts | 163° |
| 2026-04-16 14:40 | 25.23529 | 38.76368 | 37944 ft | 479 kts | 163° |
| 2026-04-16 14:41 | 25.17542 | 38.79572 | 37953 ft | 479 kts | 163° |
| 2026-04-16 14:41 | 25.11527 | 38.82788 | 37957 ft | 480 kts | 163° |
| 2026-04-16 14:42 | 25.05534 | 38.85989 | 37964 ft | 481 kts | 164° |
| 2026-04-16 14:42 | 24.99499 | 38.89241 | 37964 ft | 485 kts | 159° |
| 2026-04-16 14:43 | 24.96765 | 38.91509 | 37972 ft | 503 kts | 140° |
| 2026-04-16 14:43 | 24.94616 | 38.94593 | 37976 ft | 515 kts | 122° |
| 2026-04-16 14:43 | 24.93231 | 38.98294 | 37974 ft | 521 kts | 104° |
| 2026-04-16 14:43 | 24.92687 | 39.02204 | 37985 ft | 522 kts | 94° |
| 2026-04-16 14:44 | 24.91883 | 39.10146 | 37531 ft | 525 kts | 98° |
| 2026-04-16 14:44 | 24.91279 | 39.14146 | 36750 ft | 530 kts | 101° |
| 2026-04-16 14:44 | 24.90583 | 39.18128 | 36070 ft | 531 kts | 102° |
| 2026-04-16 14:45 | 24.89827 | 39.22154 | 35487 ft | 530 kts | 102° |
| 2026-04-16 14:45 | 24.89060 | 39.26097 | 34937 ft | 529 kts | 103° |
| 2026-04-16 14:45 | 24.88282 | 39.30015 | 34398 ft | 527 kts | 103° |
| 2026-04-16 14:45 | 24.87484 | 39.33991 | 33848 ft | 525 kts | 103° |
| 2026-04-16 14:46 | 24.86644 | 39.37865 | 33232 ft | 522 kts | 110° |
| 2026-04-16 14:46 | 24.85018 | 39.41412 | 32594 ft | 512 kts | 130° |
| 2026-04-16 14:46 | 24.82589 | 39.44160 | 31956 ft | 501 kts | 146° |
| 2026-04-16 14:46 | 24.79765 | 39.46414 | 31283 ft | 496 kts | 150° |
| 2026-04-16 14:47 | 24.76874 | 39.48458 | 30340 ft | 500 kts | 152° |
| 2026-04-16 14:47 | 24.73845 | 39.50491 | 28978 ft | 510 kts | 152° |
| 2026-04-16 14:47 | 24.70781 | 39.52491 | 27750 ft | 517 kts | 153° |
| 2026-04-16 14:47 | 24.67727 | 39.54470 | 27142 ft | 509 kts | 153° |
| 2026-04-16 14:48 | 24.64598 | 39.56255 | 26623 ft | 495 kts | 162° |
| 2026-04-16 14:48 | 24.61415 | 39.57481 | 26286 ft | 483 kts | 163° |
| 2026-04-16 14:48 | 24.58382 | 39.59037 | 25960 ft | 475 kts | 154° |
| 2026-04-16 14:48 | 24.55697 | 39.61061 | 25629 ft | 470 kts | 143° |
| 2026-04-16 14:49 | 24.53394 | 39.63614 | 25305 ft | 464 kts | 131° |
| 2026-04-16 14:49 | 24.51642 | 39.66549 | 24986 ft | 458 kts | 118° |
| 2026-04-16 14:49 | 24.50480 | 39.69749 | 24667 ft | 451 kts | 106° |
| 2026-04-16 14:49 | 24.49921 | 39.73090 | 24351 ft | 443 kts | 94° |
| 2026-04-16 14:50 | 24.49958 | 39.76457 | 24036 ft | 434 kts | 82° |
| 2026-04-16 14:50 | 24.50538 | 39.79678 | 23492 ft | 431 kts | 71° |
| 2026-04-16 14:50 | 24.51643 | 39.82733 | 22458 ft | 438 kts | 60° |
| 2026-04-16 14:50 | 24.53308 | 39.85574 | 21316 ft | 445 kts | 48° |
| 2026-04-16 14:51 | 24.55453 | 39.88030 | 20159 ft | 450 kts | 37° |
| 2026-04-16 14:51 | 24.58023 | 39.90020 | 18959 ft | 454 kts | 25° |
| 2026-04-16 14:51 | 24.60930 | 39.91368 | 17776 ft | 453 kts | 9° |
| 2026-04-16 14:51 | 24.64010 | 39.91745 | 16773 ft | 442 kts | 353° |
| 2026-04-16 14:53 | 24.76122 | 39.76331 | 10764 ft | 389 kts | 292° |
| 2026-04-16 14:53 | 24.77261 | 39.73664 | 9973 ft | 386 kts | 292° |
| 2026-04-16 14:54 | 24.78113 | 39.70896 | 9095 ft | 377 kts | 276° |
| 2026-04-16 14:54 | 24.77956 | 39.68068 | 8286 ft | 365 kts | 253° |
| 2026-04-16 14:54 | 24.76780 | 39.65688 | 7489 ft | 358 kts | 229° |
| 2026-04-16 14:54 | 24.74775 | 39.64079 | 6628 ft | 359 kts | 205° |
| 2026-04-16 14:55 | 24.72343 | 39.63587 | 5816 ft | 362 kts | 181° |
| 2026-04-16 14:55 | 24.69852 | 39.64265 | 4886 ft | 369 kts | 161° |
| 2026-04-16 14:55 | 24.67549 | 39.65485 | 4107 ft | 367 kts | 157° |
| 2026-04-16 14:55 | 24.65346 | 39.66776 | 3667 ft | 350 kts | 157° |
| 2026-04-16 14:56 | 24.63317 | 39.68013 | 3454 ft | 321 kts | 155° |
| 2026-04-16 14:56 | 24.61523 | 39.69157 | 3190 ft | 272 kts | 154° |
| 2026-04-16 14:56 | 24.59933 | 39.69946 | 2777 ft | 230 kts | 170° |
| 2026-04-16 14:56 | 24.58484 | 39.70238 | 2490 ft | 200 kts | 179° |
| 2026-04-16 14:57 | 24.57179 | 39.70427 | 2200 ft | 177 kts | 175° |
| 2026-04-16 14:57 | 24.56086 | 39.70697 | 2379 ft | 145 kts | 175° |
| 2026-04-16 14:57 | 24.55093 | 39.70880 | 3057 ft | 156 kts | 179° |
| 2026-04-16 14:57 | 24.54030 | 39.71017 | 3757 ft | 155 kts | 182° |
| 2026-04-16 14:58 | 24.52958 | 39.71062 | 4454 ft | 153 kts | 188° |
| 2026-04-16 14:58 | 24.50924 | 39.70709 | 5558 ft | 150 kts | 203° |
| 2026-04-16 14:58 | 24.49977 | 39.70217 | 5992 ft | 145 kts | 215° |
| 2026-04-16 14:59 | 24.49293 | 39.69597 | 6159 ft | 112 kts | 231° |
| 2026-04-16 14:59 | 24.48941 | 39.68776 | 6399 ft | 133 kts | 254° |
| 2026-04-16 14:59 | 24.48994 | 39.67691 | 6789 ft | 156 kts | 279° |
| 2026-04-16 14:59 | 24.49640 | 39.66635 | 7215 ft | 180 kts | 312° |
| 2026-04-16 15:00 | 24.50867 | 39.66108 | 7662 ft | 203 kts | 351° |
| 2026-04-16 15:00 | 24.52235 | 39.66612 | 8112 ft | 219 kts | 39° |
| 2026-04-16 15:00 | 24.52856 | 39.68088 | 8542 ft | 217 kts | 95° |
| 2026-04-16 15:00 | 24.52272 | 39.69494 | 8942 ft | 199 kts | 149° |
| 2026-04-16 15:01 | 24.51036 | 39.69790 | 9312 ft | 183 kts | 201° |
| 2026-04-16 15:01 | 24.50157 | 39.68843 | 9515 ft | 192 kts | 249° |
| 2026-04-16 15:01 | 24.50326 | 39.67305 | 9400 ft | 227 kts | 294° |
| 2026-04-16 15:01 | 24.51546 | 39.66290 | 9227 ft | 219 kts | 340° |
| 2026-04-16 15:02 | 24.52963 | 39.66569 | 9001 ft | 210 kts | 33° |
| 2026-04-16 15:02 | 24.53666 | 39.67842 | 8697 ft | 189 kts | 92° |
| 2026-04-16 15:02 | 24.53202 | 39.68987 | 8385 ft | 163 kts | 160° |
| 2026-04-16 15:02 | 24.52078 | 39.68936 | 8349 ft | 177 kts | 216° |
| 2026-04-16 15:03 | 24.51493 | 39.67705 | 8340 ft | 204 kts | 265° |
| 2026-04-16 15:03 | 24.52082 | 39.66207 | 8324 ft | 238 kts | 309° |
| 2026-04-16 15:03 | 24.53678 | 39.65454 | 8298 ft | 264 kts | 351° |
| 2026-04-16 15:03 | 24.55336 | 39.65985 | 8190 ft | 246 kts | 36° |
| 2026-04-16 15:04 | 24.56182 | 39.67510 | 8105 ft | 230 kts | 82° |
| 2026-04-16 15:04 | 24.56025 | 39.69122 | 7830 ft | 205 kts | 107° |
| 2026-04-16 15:04 | 24.56221 | 39.70684 | 7225 ft | 216 kts | 61° |
| 2026-04-16 15:04 | 24.57339 | 39.71708 | 6662 ft | 211 kts | 13° |
| 2026-04-16 15:05 | 24.58718 | 39.71627 | 6111 ft | 193 kts | 327° |
| 2026-04-16 15:05 | 24.59756 | 39.70782 | 5572 ft | 182 kts | 306° |
| 2026-04-16 15:05 | 24.60785 | 39.69945 | 5007 ft | 193 kts | 333° |
| 2026-04-16 15:05 | 24.62087 | 39.69558 | 4521 ft | 196 kts | 338° |
| 2026-04-16 15:06 | 24.63426 | 39.69239 | 4141 ft | 197 kts | 339° |
| 2026-04-16 15:06 | 24.64798 | 39.68934 | 4034 ft | 201 kts | 341° |
| 2026-04-16 15:06 | 24.66160 | 39.68632 | 4017 ft | 201 kts | 341° |
| 2026-04-16 15:06 | 24.67533 | 39.68324 | 4024 ft | 201 kts | 341° |
| 2026-04-16 15:07 | 24.68902 | 39.68014 | 4017 ft | 200 kts | 341° |
| 2026-04-16 15:07 | 24.70255 | 39.67705 | 4021 ft | 200 kts | 341° |
| 2026-04-16 15:07 | 24.71522 | 39.67138 | 4013 ft | 191 kts | 315° |
| 2026-04-16 15:07 | 24.72234 | 39.66021 | 4018 ft | 170 kts | 278° |
| 2026-04-16 15:08 | 24.72117 | 39.64816 | 4024 ft | 158 kts | 244° |
| 2026-04-16 15:08 | 24.71296 | 39.64000 | 4035 ft | 167 kts | 212° |
| 2026-04-16 15:08 | 24.70137 | 39.63778 | 4026 ft | 181 kts | 181° |
| 2026-04-16 15:08 | 24.68903 | 39.64218 | 4029 ft | 191 kts | 161° |
| 2026-04-16 15:09 | 24.67790 | 39.65063 | 4015 ft | 196 kts | 151° |
| 2026-04-16 15:09 | 24.66751 | 39.66032 | 4017 ft | 197 kts | 149° |
| 2026-04-16 15:09 | 24.65713 | 39.67031 | 4032 ft | 198 kts | 147° |
| 2026-04-16 15:09 | 24.64695 | 39.68017 | 4015 ft | 197 kts | 147° |
| 2026-04-16 15:10 | 24.63548 | 39.68721 | 4023 ft | 188 kts | 172° |
| 2026-04-16 15:10 | 24.62323 | 39.69330 | 3865 ft | 191 kts | 164° |
| 2026-04-16 15:10 | 24.61094 | 39.69755 | 3475 ft | 186 kts | 175° |
| 2026-04-16 15:10 | 24.59825 | 39.69994 | 3066 ft | 180 kts | 179° |
| 2026-04-16 15:11 | 24.58569 | 39.70190 | 2580 ft | 186 kts | 176° |
| 2026-04-16 15:11 | 24.57283 | 39.70416 | 2187 ft | 185 kts | 172° |
| 2026-04-16 15:11 | 24.56105 | 39.70663 | 2121 ft | 162 kts | 171° |
| 2026-04-16 15:11 | 24.55174 | 39.70857 | 2100 ft | 94 kts | 169° |
| 2026-04-16 15:12 | 24.54816 | 39.70939 | 2096 ft | 75 kts | 169° |
| 2026-04-16 15:12 | 24.54201 | 39.71060 | 2083 ft | 51 kts | 168° |
| 2026-04-16 15:12 | 24.53937 | 39.71121 | 2076 ft | 21 kts | 158° |
| 2026-04-16 15:12 | 24.53911 | 39.71197 | 2078 ft | 8 kts | 81° |
| 2026-04-16 15:13 | 24.53914 | 39.71215 | 2078 ft | 0 kts | 81° |
| 2026-04-16 15:15 | 24.53914 | 39.71216 | 2074 ft | 0 kts | 80° |
| 2026-04-16 15:15 | 24.53914 | 39.71219 | 2074 ft | 1 kts | 80° |
| 2026-04-16 15:15 | 24.53916 | 39.71228 | 2074 ft | 0 kts | 80° |
| 2026-04-16 15:18 | 24.53916 | 39.71229 | 2074 ft | 1 kts | 80° |
| 2026-04-16 15:18 | 24.53941 | 39.71292 | 2077 ft | 17 kts | 35° |
| 2026-04-16 15:18 | 24.54086 | 39.71281 | 2081 ft | 24 kts | 348° |
| 2026-04-16 15:18 | 24.54258 | 39.71242 | 2084 ft | 27 kts | 349° |
| 2026-04-16 15:19 | 24.54434 | 39.71207 | 2087 ft | 26 kts | 349° |
| 2026-04-16 15:19 | 24.54617 | 39.71165 | 2091 ft | 28 kts | 348° |
| 2026-04-16 15:19 | 24.54790 | 39.71132 | 2094 ft | 21 kts | 356° |
| 2026-04-16 15:19 | 24.54852 | 39.71247 | 2095 ft | 17 kts | 78° |
| 2026-04-16 15:20 | 24.54948 | 39.71295 | 2097 ft | 18 kts | 354° |
| 2026-04-16 15:20 | 24.55083 | 39.71264 | 2100 ft | 22 kts | 347° |
| 2026-04-16 15:20 | 24.55165 | 39.71263 | 2101 ft | 5 kts | 56° |
| 2026-04-16 15:20 | 24.55178 | 39.71314 | 2102 ft | 9 kts | 80° |
| 2026-04-16 15:21 | 24.55184 | 39.71349 | 2102 ft | 0 kts | 80° |